createdAt,value
2018-12-19T04:54:56.986Z,6.19
2018-12-19T04:55:56.975Z,6.19
2018-12-19T04:56:56.947Z,6.15
2018-12-19T04:57:56.938Z,6.18
2018-12-19T04:58:56.930Z,6.21
2018-12-19T04:59:56.921Z,6.25
2018-12-19T05:00:56.960Z,6.22
2018-12-19T05:01:56.899Z,6.22
2018-12-19T05:02:56.894Z,6.22
2018-12-19T05:03:56.879Z,6.28
2018-12-19T05:04:56.869Z,6.28
2018-12-19T05:05:57.262Z,6.25
2018-12-19T05:06:56.842Z,6.21
2018-12-19T05:07:56.837Z,6.19
2018-12-19T05:08:56.830Z,6.22
2018-12-19T05:09:56.811Z,6.34
2018-12-19T05:10:56.820Z,6.34
2018-12-19T05:11:56.792Z,6.31
2018-12-19T05:12:56.781Z,6.37
2018-12-19T05:13:56.789Z,6.34
2018-12-19T05:14:56.759Z,6.43
2018-12-19T05:15:56.775Z,6.33
2018-12-19T05:16:56.747Z,6.34
2018-12-19T05:18:06.529Z,6.28
2018-12-19T05:18:56.718Z,6.25
2018-12-19T05:19:56.705Z,6.37
2018-12-19T05:20:56.717Z,6.34
2018-12-19T05:21:56.688Z,6.40
2018-12-19T05:22:56.674Z,6.34
2018-12-19T05:23:56.668Z,6.34
2018-12-19T05:24:56.656Z,6.37
2018-12-19T05:25:56.664Z,6.38
2018-12-19T05:26:56.646Z,6.37
2018-12-19T05:27:56.626Z,6.33
2018-12-19T05:28:56.614Z,6.34
2018-12-19T05:29:56.608Z,6.37
2018-12-19T05:30:56.632Z,6.34
2018-12-19T05:31:56.582Z,6.40
2018-12-19T05:32:56.574Z,6.38
2018-12-19T05:33:56.562Z,6.38
2018-12-19T05:34:56.555Z,6.40
2018-12-19T05:35:56.561Z,6.33
2018-12-19T05:36:56.534Z,6.30
2018-12-19T05:37:56.537Z,6.36
2018-12-19T05:38:56.528Z,6.31
2018-12-19T05:39:56.541Z,6.37
2018-12-19T05:40:56.520Z,6.34
2018-12-19T05:41:56.485Z,6.37
2018-12-19T05:42:56.474Z,6.44
2018-12-19T05:43:56.467Z,6.40
2018-12-19T05:44:56.448Z,6.51
2018-12-19T05:45:56.455Z,6.40
2018-12-19T05:46:56.433Z,6.44
2018-12-19T05:47:56.431Z,6.49
2018-12-19T05:48:56.413Z,6.52
2018-12-19T05:49:56.397Z,6.54
2018-12-19T05:50:56.415Z,6.49
2018-12-19T05:51:56.417Z,6.55
2018-12-19T05:52:56.366Z,6.51
2018-12-19T05:53:56.396Z,6.54
2018-12-19T05:54:56.348Z,6.58
2018-12-19T05:55:56.361Z,6.59
2018-12-19T05:56:56.361Z,6.41
2018-12-19T05:57:56.323Z,6.52
2018-12-19T05:58:56.306Z,6.59
2018-12-19T05:59:56.296Z,6.56
2018-12-19T06:00:56.304Z,6.49
2018-12-19T06:01:56.281Z,6.61
2018-12-19T06:02:56.268Z,6.54
2018-12-19T06:03:56.257Z,6.62
2018-12-19T06:04:56.257Z,6.59
2018-12-19T06:05:56.263Z,6.64
2018-12-19T06:06:56.244Z,6.69
2018-12-19T06:07:56.210Z,6.67
2018-12-19T06:08:56.205Z,6.73
2018-12-19T06:09:56.196Z,6.77
2018-12-19T06:10:56.204Z,6.64
2018-12-19T06:11:56.184Z,6.73
2018-12-19T06:12:56.162Z,6.74
2018-12-19T06:13:56.149Z,6.76
2018-12-19T06:14:56.151Z,6.74
2018-12-19T06:15:56.154Z,6.87
2018-12-19T06:16:56.126Z,6.88
2018-12-19T06:17:56.108Z,6.87
2018-12-19T06:18:56.101Z,6.71
2018-12-19T06:19:56.091Z,6.76
2018-12-19T06:20:56.103Z,6.85
2018-12-19T06:21:56.069Z,6.85
2018-12-19T06:22:56.093Z,6.87
2018-12-19T06:23:56.047Z,6.91
2018-12-19T06:24:56.051Z,6.79
2018-12-19T06:25:56.048Z,6.92
2018-12-19T06:26:56.026Z,6.98
2018-12-19T06:27:56.006Z,6.94
2018-12-19T06:28:55.997Z,6.91
2018-12-19T06:29:55.984Z,6.94
2018-12-19T06:30:56.015Z,6.94
2018-12-19T06:31:55.971Z,6.99
2018-12-19T06:32:55.955Z,7.07
2018-12-19T06:33:55.941Z,7.02
2018-12-19T06:34:55.937Z,6.99
2018-12-19T06:35:55.950Z,7.05
2018-12-19T06:36:55.911Z,6.89
2018-12-19T06:37:55.912Z,6.97
2018-12-19T06:38:55.894Z,6.94
2018-12-19T06:39:55.890Z,6.87
2018-12-19T06:40:55.885Z,6.87
2018-12-19T06:41:55.879Z,6.92
2018-12-19T06:42:55.849Z,6.92
2018-12-19T06:43:55.841Z,6.94
2018-12-19T06:44:55.830Z,6.95
2018-12-19T06:45:55.825Z,6.97
2018-12-19T06:46:55.826Z,6.88
2018-12-19T06:47:55.802Z,6.95
2018-12-19T06:48:55.789Z,7.02
2018-12-19T06:49:55.807Z,6.88
2018-12-19T06:50:55.807Z,6.89
2018-12-19T06:51:55.865Z,6.91
2018-12-19T06:52:55.793Z,6.99
2018-12-19T06:53:55.927Z,6.92
2018-12-19T06:54:55.736Z,6.92
2018-12-19T06:55:55.758Z,6.88
2018-12-19T06:56:55.743Z,6.92
2018-12-19T06:57:55.718Z,6.85
2018-12-19T06:58:55.694Z,6.92
2018-12-19T06:59:55.680Z,6.94
2018-12-19T07:00:55.679Z,6.92
2018-12-19T07:01:55.670Z,6.92
2018-12-19T07:02:55.647Z,6.99
2018-12-19T07:03:55.637Z,6.92
2018-12-19T07:04:55.687Z,6.88
2018-12-19T07:05:55.615Z,6.94
2018-12-19T07:06:55.622Z,6.95
2018-12-19T07:07:55.595Z,6.95
2018-12-19T07:08:55.580Z,7.07
2018-12-19T07:09:55.625Z,7.06
2018-12-19T07:10:55.561Z,7.05
2018-12-19T07:11:55.616Z,7.06
2018-12-19T07:12:55.540Z,7.10
2018-12-19T07:13:55.550Z,7.12
2018-12-19T07:14:55.518Z,6.94
2018-12-19T07:15:55.512Z,6.98
2018-12-19T07:16:55.520Z,7.07
2018-12-19T07:17:55.489Z,6.97
2018-12-19T07:18:55.496Z,6.95
2018-12-19T07:19:55.475Z,6.95
2018-12-19T07:20:55.458Z,7.10
2018-12-19T07:21:55.464Z,7.02
2018-12-19T07:22:55.460Z,7.02
2018-12-19T07:23:55.426Z,7.09
2018-12-19T07:24:55.419Z,7.09
2018-12-19T07:25:55.412Z,7.09
2018-12-19T07:26:55.422Z,7.07
2018-12-19T07:27:55.396Z,7.09
2018-12-19T07:28:55.383Z,7.12
2018-12-19T07:29:55.374Z,7.20
2018-12-19T07:30:55.355Z,7.12
2018-12-19T07:31:55.378Z,7.12
2018-12-19T07:32:55.343Z,7.15
2018-12-19T07:33:55.324Z,7.12
2018-12-19T07:34:55.315Z,7.20
2018-12-19T07:35:55.308Z,7.23
2018-12-19T07:36:55.326Z,7.24
2018-12-19T07:37:55.289Z,7.23
2018-12-19T07:38:55.300Z,7.17
2018-12-19T07:39:56.351Z,7.20
2018-12-19T07:40:55.265Z,7.21
2018-12-19T07:41:55.295Z,7.21
2018-12-19T07:42:55.238Z,7.23
2018-12-19T07:43:55.223Z,7.20
2018-12-19T07:44:55.213Z,7.20
2018-12-19T07:45:55.264Z,7.20
2018-12-19T07:46:55.207Z,7.17
2018-12-19T07:47:55.208Z,7.24
2018-12-19T07:48:55.175Z,7.24
2018-12-19T07:49:55.159Z,7.34
2018-12-19T07:50:55.149Z,7.31
2018-12-19T07:51:55.163Z,7.30
2018-12-19T07:52:55.129Z,7.37
2018-12-19T07:53:55.120Z,7.35
2018-12-19T07:54:55.166Z,7.42
2018-12-19T07:55:55.097Z,7.35
2018-12-19T07:56:55.103Z,7.34
2018-12-19T07:57:55.152Z,7.42
2018-12-19T07:58:55.070Z,7.40
2018-12-19T07:59:55.062Z,7.49
2018-12-19T08:00:55.120Z,7.50
2018-12-19T08:01:55.054Z,7.52
2018-12-19T08:02:55.027Z,7.55
2018-12-19T08:03:55.016Z,7.43
2018-12-19T08:04:55.009Z,7.45
2018-12-19T08:05:54.998Z,7.53
2018-12-19T08:06:55.007Z,7.46
2018-12-19T08:07:54.985Z,7.57
2018-12-19T08:08:54.964Z,7.55
2018-12-19T08:09:54.956Z,7.55
2018-12-19T08:10:54.948Z,7.55
2018-12-19T08:11:54.962Z,7.52
2018-12-19T08:12:54.934Z,7.60
2018-12-19T08:13:54.932Z,7.50
2018-12-19T08:14:54.901Z,7.61
2018-12-19T08:15:54.903Z,7.55
2018-12-19T08:16:54.902Z,7.53
2018-12-19T08:17:54.984Z,7.55
2018-12-19T08:18:54.905Z,7.53
2018-12-19T08:19:54.938Z,7.53
2018-12-19T08:20:54.836Z,7.55
2018-12-19T08:21:54.847Z,7.53
2018-12-19T08:22:54.833Z,7.55
2018-12-19T08:23:54.806Z,7.58
2018-12-19T08:24:54.809Z,7.69
2018-12-19T08:25:54.792Z,7.69
2018-12-19T08:26:54.797Z,7.71
2018-12-19T08:27:54.764Z,7.69
2018-12-19T08:28:54.754Z,7.68
2018-12-19T08:29:54.743Z,7.68
2018-12-19T08:30:54.734Z,7.69
2018-12-19T08:31:54.761Z,7.68
2018-12-19T08:32:54.723Z,7.72
2018-12-19T08:33:54.704Z,7.69
2018-12-19T08:34:54.691Z,7.69
2018-12-19T08:35:54.696Z,7.71
2018-12-19T08:36:54.672Z,7.67
2018-12-19T08:37:54.681Z,7.69
2018-12-19T08:38:54.660Z,7.82
2018-12-19T08:39:54.639Z,7.71
2018-12-19T08:40:58.712Z,7.64
2018-12-19T08:41:54.639Z,7.82
2018-12-19T08:42:54.675Z,7.85
2018-12-19T08:43:54.633Z,7.80
2018-12-19T08:44:54.607Z,7.80
2018-12-19T08:45:54.579Z,7.77
2018-12-19T08:46:54.566Z,7.72
2018-12-19T08:47:54.649Z,7.82
2018-12-19T08:48:54.549Z,7.87
2018-12-19T08:49:54.538Z,7.85
2018-12-19T08:50:54.523Z,7.87
2018-12-19T08:51:54.521Z,7.82
2018-12-19T08:52:54.563Z,7.93
2018-12-19T08:53:54.495Z,7.86
2018-12-19T08:54:54.480Z,7.93
2018-12-19T08:55:54.468Z,7.92
2018-12-19T08:56:54.460Z,7.93
2018-12-19T08:57:54.562Z,8.01
2018-12-19T08:58:54.438Z,7.98
2018-12-19T08:59:54.431Z,8.05
2018-12-19T09:00:54.423Z,8.07
2018-12-19T09:01:54.406Z,8.10
2018-12-19T09:02:54.417Z,8.20
2018-12-19T09:03:54.385Z,8.20
2018-12-19T09:04:54.375Z,8.16
2018-12-19T09:05:54.365Z,8.19
2018-12-19T09:06:54.358Z,8.22
2018-12-19T09:07:54.358Z,8.28
2018-12-19T09:08:54.348Z,8.33
2018-12-19T09:09:54.322Z,8.36
2018-12-19T09:10:54.310Z,8.34
2018-12-19T09:11:54.302Z,8.41
2018-12-19T09:12:54.307Z,8.38
2018-12-19T09:13:54.283Z,8.50
2018-12-19T09:14:54.268Z,8.55
2018-12-19T09:15:54.277Z,8.59
2018-12-19T09:16:54.249Z,8.55
2018-12-19T09:17:54.252Z,8.59
2018-12-19T09:18:54.238Z,8.61
2018-12-19T09:19:54.214Z,8.71
2018-12-19T09:20:54.206Z,8.66
2018-12-19T09:21:54.198Z,8.70
2018-12-19T09:22:54.197Z,8.66
2018-12-19T09:23:54.178Z,8.66
2018-12-19T09:24:54.168Z,8.65
2018-12-19T09:25:54.153Z,8.63
2018-12-19T09:26:54.139Z,8.56
2018-12-19T09:27:54.149Z,8.58
2018-12-19T09:28:54.114Z,8.65
2018-12-19T09:29:54.107Z,8.66
2018-12-19T09:30:54.098Z,8.70
2018-12-19T09:31:54.085Z,8.65
2018-12-19T09:32:54.088Z,8.77
2018-12-19T09:33:54.058Z,8.71
2018-12-19T09:34:54.057Z,8.71
2018-12-19T09:35:54.040Z,8.63
2018-12-19T09:36:54.027Z,8.73
2018-12-19T09:37:54.050Z,8.61
2018-12-19T09:38:54.005Z,8.59
2018-12-19T09:39:53.995Z,8.68
2018-12-19T09:40:53.995Z,8.63
2018-12-19T09:41:53.986Z,8.66
2018-12-19T09:42:54.036Z,8.71
2018-12-19T09:43:53.954Z,8.59
2018-12-19T09:44:53.940Z,8.76
2018-12-19T09:45:53.939Z,8.63
2018-12-19T09:46:53.921Z,8.71
2018-12-19T09:47:53.937Z,8.77
2018-12-19T09:48:53.898Z,8.87
2018-12-19T09:49:53.891Z,8.74
2018-12-19T09:50:53.877Z,8.84
2018-12-19T09:51:53.876Z,8.92
2018-12-19T09:52:53.878Z,8.92
2018-12-19T09:53:53.846Z,8.99
2018-12-19T09:54:53.841Z,9.01
2018-12-19T09:55:53.828Z,9.13
2018-12-19T09:56:53.810Z,9.23
2018-12-19T09:57:53.815Z,9.29
2018-12-19T09:58:53.815Z,9.33
2018-12-19T09:59:53.779Z,9.47
2018-12-19T10:00:53.772Z,9.57
2018-12-19T10:01:53.767Z,9.74
2018-12-19T10:02:53.774Z,9.89
2018-12-19T10:03:53.761Z,9.93
2018-12-19T10:04:53.724Z,9.99
2018-12-19T10:05:53.713Z,10.20
2018-12-19T10:06:53.707Z,10.42
2018-12-19T10:07:53.709Z,10.68
2018-12-19T10:08:53.682Z,10.66
2018-12-19T10:09:53.670Z,10.85
2018-12-19T10:10:53.658Z,10.97
2018-12-19T10:11:53.646Z,11.09
2018-12-19T10:12:53.656Z,11.10
2018-12-19T10:13:53.635Z,11.33
2018-12-19T10:14:53.611Z,11.52
2018-12-19T10:15:53.609Z,11.75
2018-12-19T10:16:53.593Z,11.91
2018-12-19T10:17:53.600Z,12.05
2018-12-19T10:18:53.567Z,12.17
2018-12-19T10:19:53.556Z,12.12
2018-12-19T10:20:53.545Z,12.24
2018-12-19T10:21:53.538Z,12.27
2018-12-19T10:22:53.553Z,12.42
2018-12-19T10:23:53.511Z,12.49
2018-12-19T10:24:53.508Z,12.54
2018-12-19T10:25:53.488Z,12.71
2018-12-19T10:26:53.476Z,12.83
2018-12-19T10:27:53.467Z,13.00
2018-12-19T10:28:53.492Z,13.03
2018-12-19T10:29:53.450Z,13.10
2018-12-19T10:30:53.432Z,13.15
2018-12-19T10:31:53.422Z,13.14
2018-12-19T10:32:53.411Z,13.07
2018-12-19T10:33:53.417Z,13.08
2018-12-19T10:34:53.389Z,13.00
2018-12-19T10:35:53.381Z,13.07
2018-12-19T10:36:53.403Z,13.20
2018-12-19T10:37:53.355Z,13.38
2018-12-19T10:38:53.376Z,13.42
2018-12-19T10:39:53.337Z,13.71
2018-12-19T10:40:53.323Z,13.79
2018-12-19T10:41:53.329Z,13.96
2018-12-19T10:42:53.304Z,14.09
2018-12-19T10:43:53.743Z,14.14
2018-12-19T10:44:53.328Z,14.22
2018-12-19T10:45:53.271Z,14.22
2018-12-19T10:46:53.287Z,14.24
2018-12-19T10:47:53.251Z,13.97
2018-12-19T10:48:53.286Z,13.92
2018-12-19T10:49:53.258Z,14.07
2018-12-19T10:50:53.228Z,14.25
2018-12-19T10:51:53.207Z,14.06
2018-12-19T10:52:53.221Z,14.25
2018-12-19T10:53:53.199Z,14.29
2018-12-19T10:54:53.172Z,14.50
2018-12-19T10:55:53.163Z,14.54
2018-12-19T10:56:53.160Z,14.51
2018-12-19T10:57:53.139Z,14.27
2018-12-19T10:58:53.154Z,14.33
2018-12-19T10:59:53.130Z,14.36
2018-12-19T11:00:53.167Z,14.50
2018-12-19T11:01:53.093Z,14.33
2018-12-19T11:02:53.085Z,14.22
2018-12-19T11:03:53.107Z,13.82
2018-12-19T11:04:54.314Z,13.52
2018-12-19T11:05:54.402Z,13.42
2018-12-19T11:06:53.052Z,13.49
2018-12-19T11:07:53.031Z,13.60
2018-12-19T11:08:53.039Z,13.39
2018-12-19T11:09:53.025Z,13.08
2018-12-19T11:10:52.996Z,13.01
2018-12-19T11:11:52.991Z,12.86
2018-12-19T11:12:53.002Z,12.86
2018-12-19T11:13:52.989Z,12.68
2018-12-19T11:14:52.951Z,12.65
2018-12-19T11:15:52.947Z,12.60
2018-12-19T11:16:52.990Z,12.56
2018-12-19T11:17:52.921Z,12.50
2018-12-19T11:18:52.943Z,12.29
2018-12-19T11:19:52.900Z,12.16
2018-12-19T11:20:52.894Z,12.19
2018-12-19T11:21:52.875Z,12.12
2018-12-19T11:22:52.876Z,12.09
2018-12-19T11:23:52.936Z,12.13
2018-12-19T11:24:52.850Z,12.10
2018-12-19T11:25:52.872Z,12.02
2018-12-19T11:26:52.834Z,12.07
2018-12-19T11:27:52.807Z,12.05
2018-12-19T11:28:53.329Z,12.13
2018-12-19T11:29:52.793Z,12.10
2018-12-19T11:30:52.800Z,12.02
2018-12-19T11:31:52.774Z,12.05
2018-12-19T11:32:52.759Z,12.13
2018-12-19T11:33:52.766Z,12.13
2018-12-19T11:34:52.740Z,11.94
2018-12-19T11:35:52.721Z,11.96
2018-12-19T11:36:52.711Z,11.94
2018-12-19T11:37:52.700Z,11.91
2018-12-19T11:38:52.708Z,11.88
2018-12-19T11:39:52.676Z,11.94
2018-12-19T11:40:52.667Z,11.82
2018-12-19T11:41:52.668Z,11.72
2018-12-19T11:42:52.642Z,11.58
2018-12-19T11:43:52.648Z,11.49
2018-12-19T11:44:52.622Z,11.47
2018-12-19T11:45:52.609Z,11.36
2018-12-19T11:46:52.608Z,11.24
2018-12-19T11:47:52.601Z,11.27
2018-12-19T11:48:52.594Z,11.25
2018-12-19T11:49:52.565Z,11.27
2018-12-19T11:50:52.553Z,11.28
2018-12-19T11:51:52.542Z,11.25
2018-12-19T11:52:52.533Z,11.36
2018-12-19T11:53:52.555Z,11.29
2018-12-19T11:54:52.509Z,11.27
2018-12-19T11:55:52.498Z,11.27
2018-12-19T11:56:52.486Z,11.24
2018-12-19T11:57:52.474Z,11.22
2018-12-19T11:58:52.484Z,11.19
2018-12-19T11:59:52.463Z,11.22
2018-12-19T12:00:52.441Z,11.15
2018-12-19T12:01:52.431Z,11.22
2018-12-19T12:02:52.419Z,11.27
2018-12-19T12:03:52.429Z,11.22
2018-12-19T12:04:52.397Z,11.32
2018-12-19T12:05:52.383Z,11.25
2018-12-19T12:06:52.384Z,11.27
2018-12-19T12:07:52.360Z,11.27
2018-12-19T12:08:52.367Z,11.27
2018-12-19T12:09:52.340Z,11.22
2018-12-19T12:10:52.327Z,11.24
2018-12-19T12:11:52.321Z,11.33
2018-12-19T12:12:52.308Z,11.35
2018-12-19T12:13:52.326Z,11.33
2018-12-19T12:14:52.293Z,11.25
2018-12-19T12:15:52.274Z,11.29
2018-12-19T12:16:52.260Z,11.25
2018-12-19T12:17:52.252Z,11.21
2018-12-19T12:18:52.275Z,11.29
2018-12-19T12:19:52.227Z,11.29
2018-12-19T12:20:52.241Z,11.37
2018-12-19T12:21:52.201Z,11.37
2018-12-19T12:22:52.200Z,11.40
2018-12-19T12:23:52.197Z,11.39
2018-12-19T12:24:52.186Z,11.42
2018-12-19T12:25:52.159Z,11.28
2018-12-19T12:26:52.262Z,11.39
2018-12-19T12:27:52.141Z,11.40
2018-12-19T12:28:52.147Z,11.43
2018-12-19T12:29:52.136Z,11.40
2018-12-19T12:30:52.100Z,11.55
2018-12-19T12:31:52.092Z,11.44
2018-12-19T12:32:52.079Z,11.43
2018-12-19T12:33:52.078Z,11.46
2018-12-19T12:34:52.085Z,11.47
2018-12-19T12:35:52.056Z,11.55
2018-12-19T12:36:52.034Z,11.46
2018-12-19T12:37:52.165Z,11.51
2018-12-19T12:38:52.045Z,11.44
2018-12-19T12:39:52.019Z,11.54
2018-12-19T12:40:51.987Z,11.39
2018-12-19T12:41:52.477Z,11.51
2018-12-19T12:42:51.966Z,11.57
2018-12-19T12:43:51.952Z,11.58
2018-12-19T12:44:51.973Z,11.67
2018-12-19T12:45:51.945Z,11.73
2018-12-19T12:46:51.921Z,11.80
2018-12-19T12:47:51.909Z,11.83
2018-12-19T12:48:51.897Z,11.86
2018-12-19T12:49:51.910Z,11.78
2018-12-19T12:50:51.891Z,11.85
2018-12-19T12:51:51.864Z,11.90
2018-12-19T12:52:51.854Z,11.95
2018-12-19T12:53:51.893Z,11.80
2018-12-19T12:54:51.845Z,11.82
2018-12-19T12:55:51.819Z,11.75
2018-12-19T12:56:51.828Z,11.73
2018-12-19T12:57:51.800Z,11.69
2018-12-19T12:58:51.784Z,11.58
2018-12-19T12:59:51.812Z,11.62
2018-12-19T13:00:51.775Z,11.57
2018-12-19T13:01:51.752Z,11.55
2018-12-19T13:02:51.745Z,11.58
2018-12-19T13:03:51.738Z,11.60
2018-12-19T13:04:51.741Z,11.58
2018-12-19T13:05:51.706Z,11.54
2018-12-19T13:06:51.784Z,11.49
2018-12-19T13:07:51.682Z,11.52
2018-12-19T13:08:51.671Z,11.47
2018-12-19T13:09:51.704Z,11.44
2018-12-19T13:10:51.648Z,11.43
2018-12-19T13:11:51.638Z,11.46
2018-12-19T13:12:51.643Z,11.40
2018-12-19T13:13:51.655Z,11.42
2018-12-19T13:14:51.629Z,11.42
2018-12-19T13:15:51.593Z,11.46
2018-12-19T13:16:51.584Z,11.36
2018-12-19T13:17:51.570Z,11.33
2018-12-19T13:18:51.561Z,11.39
2018-12-19T13:19:51.572Z,11.35
2018-12-19T13:20:51.552Z,11.40
2018-12-19T13:21:51.528Z,11.32
2018-12-19T13:22:51.515Z,11.37
2018-12-19T13:23:51.504Z,11.39
2018-12-19T13:24:51.511Z,11.36
2018-12-19T13:25:51.493Z,11.43
2018-12-19T13:26:51.473Z,11.35
2018-12-19T13:27:51.462Z,11.36
2018-12-19T13:28:51.450Z,11.44
2018-12-19T13:29:51.463Z,11.37
2018-12-19T13:30:51.429Z,11.33
2018-12-19T13:31:51.419Z,11.40
2018-12-19T13:32:51.408Z,11.47
2018-12-19T13:33:51.404Z,11.39
2018-12-19T13:34:51.408Z,11.36
2018-12-19T13:35:51.370Z,11.28
2018-12-19T13:36:51.367Z,11.28
2018-12-19T13:37:51.371Z,11.27
2018-12-19T13:38:51.344Z,11.15
2018-12-19T13:39:51.383Z,11.24
2018-12-19T13:40:51.311Z,11.15
2018-12-19T13:41:51.300Z,11.17
2018-12-19T13:42:51.291Z,11.07
2018-12-19T13:43:51.385Z,11.09
2018-12-19T13:44:51.283Z,11.07
2018-12-19T13:45:51.256Z,11.04
2018-12-19T13:46:51.255Z,10.99
2018-12-19T13:47:51.230Z,11.02
2018-12-19T13:48:51.225Z,10.99
2018-12-19T13:49:51.240Z,10.99
2018-12-19T13:50:51.203Z,10.99
2018-12-19T13:51:51.200Z,10.89
2018-12-19T13:52:51.174Z,10.97
2018-12-19T13:53:51.165Z,10.88
2018-12-19T13:54:51.181Z,10.92
2018-12-19T13:55:51.143Z,10.92
2018-12-19T13:56:51.131Z,10.96
2018-12-19T13:57:51.127Z,10.96
2018-12-19T13:58:51.116Z,10.91
2018-12-19T13:59:51.119Z,10.81
2018-12-19T14:00:51.107Z,10.89
2018-12-19T14:01:51.097Z,10.85
2018-12-19T14:02:51.068Z,10.86
2018-12-19T14:03:51.054Z,10.86
2018-12-19T14:04:51.059Z,10.88
2018-12-19T14:05:51.051Z,10.88
2018-12-19T14:06:51.025Z,10.85
2018-12-19T14:07:51.016Z,10.91
2018-12-19T14:08:51.028Z,10.86
2018-12-19T14:09:51.054Z,10.85
2018-12-19T14:10:50.974Z,10.86
2018-12-19T14:11:50.963Z,10.89
2018-12-19T14:12:50.955Z,10.89
2018-12-19T14:13:50.946Z,10.86
2018-12-19T14:14:50.938Z,10.92
2018-12-19T14:15:50.939Z,10.88
2018-12-19T14:16:50.911Z,10.91
2018-12-19T14:17:50.896Z,10.85
2018-12-19T14:18:50.893Z,10.91
2018-12-19T14:19:50.885Z,10.92
2018-12-19T14:20:50.882Z,10.84
2018-12-19T14:21:50.882Z,10.89
2018-12-19T14:22:50.845Z,10.89
2018-12-19T14:23:50.845Z,10.86
2018-12-19T14:24:50.822Z,10.88
2018-12-19T14:25:50.833Z,10.92
2018-12-19T14:26:50.798Z,10.85
2018-12-19T14:27:50.803Z,10.82
2018-12-19T14:28:50.778Z,10.74
2018-12-19T14:29:50.767Z,10.82
2018-12-19T14:30:50.773Z,10.81
2018-12-19T14:31:50.742Z,10.76
2018-12-19T14:32:50.729Z,10.76
2018-12-19T14:33:50.744Z,10.73
2018-12-19T14:34:50.712Z,10.74
2018-12-19T14:35:50.752Z,10.78
2018-12-19T14:36:50.695Z,10.76
2018-12-19T14:37:50.678Z,10.78
2018-12-19T14:38:50.673Z,10.82
2018-12-19T14:39:50.693Z,10.81
2018-12-19T14:40:50.702Z,10.82
2018-12-19T14:41:50.653Z,10.85
2018-12-19T14:42:50.630Z,10.84
2018-12-19T14:43:50.609Z,10.79
2018-12-19T14:44:50.602Z,10.88
2018-12-19T14:45:50.679Z,10.86
2018-12-19T14:46:50.580Z,10.81
2018-12-19T14:47:50.634Z,10.81
2018-12-19T14:48:50.554Z,10.78
2018-12-19T14:49:50.545Z,10.76
2018-12-19T14:50:50.556Z,10.81
2018-12-19T14:51:50.532Z,10.85
2018-12-19T14:52:50.513Z,10.85
2018-12-19T14:53:50.503Z,10.84
2018-12-19T14:54:50.502Z,10.88
2018-12-19T14:55:50.501Z,10.86
2018-12-19T14:56:50.474Z,10.88
2018-12-19T14:57:50.456Z,10.88
2018-12-19T14:58:50.446Z,10.86
2018-12-19T14:59:50.435Z,10.79
2018-12-19T15:00:50.538Z,10.85
2018-12-19T15:01:50.413Z,10.86
2018-12-19T15:02:50.403Z,10.71
2018-12-19T15:03:50.391Z,10.91
2018-12-19T15:04:50.381Z,10.79
2018-12-19T15:05:50.390Z,10.76
2018-12-19T15:06:50.381Z,10.76
2018-12-19T15:07:50.351Z,10.78
2018-12-19T15:08:50.340Z,10.70
2018-12-19T15:09:50.330Z,10.68
2018-12-19T15:10:50.339Z,10.73
2018-12-19T15:11:50.312Z,10.66
2018-12-19T15:12:50.303Z,10.70
2018-12-19T15:13:50.303Z,10.66
2018-12-19T15:14:50.273Z,10.78
2018-12-19T15:15:50.294Z,10.81
2018-12-19T15:16:50.251Z,10.79
2018-12-19T15:17:50.249Z,10.76
2018-12-19T15:18:50.231Z,10.76
2018-12-19T15:19:50.230Z,10.76
2018-12-19T15:20:50.224Z,10.76
2018-12-19T15:21:50.196Z,10.79
2018-12-19T15:22:50.184Z,10.61
2018-12-19T15:23:50.174Z,10.61
2018-12-19T15:24:50.166Z,10.71
2018-12-19T15:25:50.175Z,10.71
2018-12-19T15:26:50.151Z,10.67
2018-12-19T15:27:50.127Z,10.61
2018-12-19T15:28:50.122Z,10.68
2018-12-19T15:29:50.109Z,10.68
2018-12-19T15:30:50.111Z,10.73
2018-12-19T15:31:50.087Z,10.61
2018-12-19T15:32:50.079Z,10.63
2018-12-19T15:33:50.059Z,10.63
2018-12-19T15:34:50.052Z,10.71
2018-12-19T15:35:50.059Z,10.66
2018-12-19T15:36:50.030Z,10.73
2018-12-19T15:37:50.023Z,10.63
2018-12-19T15:38:50.009Z,10.68
2018-12-19T15:39:50.008Z,10.68
2018-12-19T15:40:50.006Z,10.61
2018-12-19T15:41:49.977Z,10.56
2018-12-19T15:42:49.967Z,10.59
2018-12-19T15:43:49.954Z,10.59
2018-12-19T15:44:49.941Z,10.60
2018-12-19T15:45:49.948Z,10.60
2018-12-19T15:46:49.933Z,10.63
2018-12-19T15:47:49.912Z,10.52
2018-12-19T15:48:49.897Z,10.59
2018-12-19T15:49:49.897Z,10.53
2018-12-19T15:50:49.893Z,10.48
2018-12-19T15:51:49.866Z,10.51
2018-12-19T15:52:49.857Z,10.52
2018-12-19T15:53:49.890Z,10.48
2018-12-19T15:54:49.835Z,10.45
2018-12-19T15:55:49.843Z,10.44
2018-12-19T15:56:49.849Z,10.47
2018-12-19T15:57:49.799Z,10.55
2018-12-19T15:58:49.791Z,10.52
2018-12-19T15:59:49.776Z,10.53
2018-12-19T16:00:49.828Z,10.59
2018-12-19T16:01:49.764Z,10.60
2018-12-19T16:02:49.745Z,10.63
2018-12-19T16:03:49.734Z,10.53
2018-12-19T16:04:49.722Z,10.59
2018-12-19T16:05:49.716Z,10.56
2018-12-19T16:06:49.722Z,10.52
2018-12-19T16:07:49.690Z,10.48
2018-12-19T16:08:49.677Z,10.55
2018-12-19T16:09:49.693Z,10.56
2018-12-19T16:10:49.668Z,10.55
2018-12-19T16:11:49.673Z,10.55
2018-12-19T16:12:49.638Z,10.60
2018-12-19T16:13:49.624Z,10.56
2018-12-19T16:14:49.613Z,10.59
2018-12-19T16:15:49.603Z,10.51
2018-12-19T16:16:49.610Z,10.48
2018-12-19T16:17:49.591Z,10.45
2018-12-19T16:18:49.594Z,10.51
2018-12-19T16:19:49.566Z,10.51
2018-12-19T16:20:49.548Z,10.44
2018-12-19T16:21:49.555Z,10.45
2018-12-19T16:22:49.526Z,10.48
2018-12-19T16:23:49.520Z,10.42
2018-12-19T16:24:49.505Z,10.36
2018-12-19T16:25:49.508Z,10.36
2018-12-19T16:26:49.500Z,10.33
2018-12-19T16:27:49.514Z,10.32
2018-12-19T16:28:49.461Z,10.33
2018-12-19T16:29:49.499Z,10.33
2018-12-19T16:30:49.437Z,10.32
2018-12-19T16:31:49.454Z,10.34
2018-12-19T16:32:49.415Z,10.30
2018-12-19T16:33:49.460Z,10.32
2018-12-19T16:34:49.400Z,10.30
2018-12-19T16:35:49.386Z,10.33
2018-12-19T16:36:49.398Z,10.34
2018-12-19T16:37:49.364Z,10.29
2018-12-19T16:38:49.431Z,10.38
2018-12-19T16:39:49.346Z,10.29
2018-12-19T16:40:49.330Z,10.26
2018-12-19T16:41:49.348Z,10.22
2018-12-19T16:42:49.322Z,10.27
2018-12-19T16:43:49.295Z,10.20
2018-12-19T16:44:49.284Z,10.22
2018-12-19T16:45:49.277Z,10.23
2018-12-19T16:46:49.298Z,10.17
2018-12-19T16:47:49.263Z,10.14
2018-12-19T16:48:49.242Z,10.14
2018-12-19T16:49:49.244Z,10.08
2018-12-19T16:50:49.219Z,10.02
2018-12-19T16:51:49.237Z,10.04
2018-12-19T16:52:49.204Z,9.97
2018-12-19T16:53:49.203Z,9.93
2018-12-19T16:54:49.177Z,9.99
2018-12-19T16:55:49.164Z,9.90
2018-12-19T16:56:49.180Z,9.94
2018-12-19T16:57:49.163Z,9.86
2018-12-19T16:58:49.134Z,9.91
2018-12-19T16:59:49.157Z,9.86
2018-12-19T17:00:49.110Z,9.87
2018-12-19T17:01:49.120Z,9.90
2018-12-19T17:02:49.092Z,9.94
2018-12-19T17:03:49.083Z,9.89
2018-12-19T17:04:49.073Z,9.81
2018-12-19T17:05:49.057Z,9.94
2018-12-19T17:06:49.068Z,9.89
2018-12-19T17:07:50.150Z,9.87
2018-12-19T17:08:49.035Z,9.91
2018-12-19T17:09:49.012Z,9.94
2018-12-19T17:10:49.003Z,9.93
2018-12-19T17:11:49.012Z,9.93
2018-12-19T17:12:52.772Z,9.78
2018-12-19T17:13:48.969Z,9.78
2018-12-19T17:14:48.969Z,9.76
2018-12-19T17:15:48.965Z,9.75
2018-12-19T17:16:48.958Z,9.66
2018-12-19T17:17:48.927Z,9.66
2018-12-19T17:18:48.915Z,9.66
2018-12-19T17:19:48.912Z,9.74
2018-12-19T17:20:48.905Z,9.68
2018-12-19T17:21:48.934Z,9.76
2018-12-19T17:22:48.871Z,9.66
2018-12-19T17:23:48.862Z,9.68
2018-12-19T17:24:48.851Z,9.68
2018-12-19T17:25:48.844Z,9.71
2018-12-19T17:26:48.845Z,9.64
2018-12-19T17:27:48.829Z,9.69
2018-12-19T17:28:48.806Z,9.68
2018-12-19T17:29:48.797Z,9.68
2018-12-19T17:30:48.785Z,9.66
2018-12-19T17:31:48.790Z,9.72
2018-12-19T17:32:49.228Z,9.66
2018-12-19T17:33:48.757Z,9.68
2018-12-19T17:34:48.740Z,9.68
2018-12-19T17:35:48.732Z,9.72
2018-12-19T17:36:48.749Z,9.71
2018-12-19T17:37:48.707Z,9.66
2018-12-19T17:38:48.697Z,9.76
2018-12-19T17:39:48.710Z,9.74
2018-12-19T17:40:48.679Z,9.72
2018-12-19T17:41:48.716Z,9.71
2018-12-19T17:42:48.664Z,9.65
2018-12-19T17:43:48.645Z,9.65
2018-12-19T17:44:48.632Z,9.54
2018-12-19T17:45:48.634Z,9.54
2018-12-19T17:46:48.632Z,9.57
2018-12-19T17:47:48.605Z,9.51
2018-12-19T17:48:48.604Z,9.53
2018-12-19T17:49:48.581Z,9.51
2018-12-19T17:50:48.590Z,9.54
2018-12-19T17:51:48.574Z,9.53
2018-12-19T17:52:48.549Z,9.46
2018-12-19T17:53:48.550Z,9.48
2018-12-19T17:54:48.525Z,9.48
2018-12-19T17:55:48.514Z,9.43
2018-12-19T17:56:48.580Z,9.47
2018-12-19T17:57:48.491Z,9.43
2018-12-19T17:58:48.487Z,9.46